Enter the Airport ICAO Code

Search by Airport or City

Current Weather

LERT | US Naval Station Rota[1]

Rota, Andalusia, Spain

Last Update 34 Minutes Ago

Partly Cloudy Sky

Temperature of 21 ºC

Moderate Winds from West

Temperature

21 ºC

Dew Point Temperature

14 ºC

Relative Humidity

64.45 %

Wind Direction

West (270º, Ranging from 230º to 350º)

Wind Velocity

19 km/h (10 kt)

Gusts

None

Visibility

Greater than 10 Kilometers

Sea Level Pressure

1018 hPa (Hectopascals)

Layers of Clouds

5% to 30% of Sky Covered from 762 mts (2500 ft) Above Ground Level.

30% to 60% of Sky Covered from 1067 mts (3500 ft) Above Ground Level.

METAR LERT 191100Z 27010KT 230V350 9999 FEW025 SCT035 21/14 Q1018 NOSIG

Weather Forecast

LERT | US Naval Station Rota[1]

Rota, Andalusia, Spain

Forecast valid for the next 21 Hours

In the next hour it is expected the begining of:

Moderate Winds from West

In 10 to 12 hours it is expected the begining of:

Light to Moderate Winds from NorthWest

Maximum Temperature

23 ºC in 1 Hour

Minimum Temperature

16 ºC in 17 Hours

TAF LERT 190800Z 1909/2009 33005KT 9999 FEW030 TX23/1913Z TN16/2005Z BECMG 1911/1913 26011KT BECMG 1922/1924 32008KT